createdAt,value
2023-05-25T00:02:08.075Z,11.80
2023-05-25T00:04:37.023Z,11.80
2023-05-25T00:07:05.645Z,11.90
2023-05-25T00:09:33.903Z,11.90
2023-05-25T00:12:02.818Z,11.90
2023-05-25T00:14:31.751Z,11.90
2023-05-25T00:17:04.333Z,11.80
2023-05-25T00:19:34.013Z,11.90
2023-05-25T00:22:03.259Z,11.90
2023-05-25T00:24:32.113Z,11.90
2023-05-25T00:27:00.706Z,11.80
2023-05-25T00:29:29.021Z,11.80
2023-05-25T00:31:57.417Z,11.80
2023-05-25T00:34:26.949Z,11.90
2023-05-25T00:36:55.462Z,12.00
2023-05-25T00:39:23.877Z,12.00
2023-05-25T00:41:52.150Z,12.00
2023-05-25T00:44:21.853Z,11.90
2023-05-25T00:46:53.048Z,11.90
2023-05-25T00:49:23.692Z,11.90
2023-05-25T00:51:54.414Z,11.90
2023-05-25T00:54:23.024Z,11.90
2023-05-25T00:56:54.119Z,11.90
2023-05-25T00:59:29.607Z,11.80
2023-05-25T01:02:00.833Z,11.90
2023-05-25T01:04:29.926Z,11.80
2023-05-25T01:07:01.201Z,11.80
2023-05-25T01:09:30.904Z,11.80
2023-05-25T01:12:00.253Z,11.80
2023-05-25T01:14:29.448Z,11.80
2023-05-25T01:16:59.955Z,11.80
2023-05-25T01:19:28.526Z,11.80
2023-05-25T01:22:04.963Z,11.80
2023-05-25T01:24:40.892Z,11.80
2023-05-25T01:27:17.005Z,11.80
2023-05-25T01:29:49.094Z,11.80
2023-05-25T01:32:19.496Z,11.70
2023-05-25T01:34:52.038Z,11.70
2023-05-25T01:37:24.598Z,11.70
2023-05-25T01:39:52.819Z,11.70
2023-05-25T01:42:20.985Z,11.70
2023-05-25T01:44:49.993Z,11.70
2023-05-25T01:47:24.628Z,11.60
2023-05-25T01:50:01.181Z,11.60
2023-05-25T01:52:35.873Z,11.60
2023-05-25T01:55:09.284Z,11.50
2023-05-25T01:57:43.674Z,11.60
2023-05-25T02:00:14.388Z,11.50
2023-05-25T02:02:44.376Z,11.50
2023-05-25T02:05:12.915Z,11.50
2023-05-25T02:07:42.613Z,11.50
2023-05-25T02:10:11.450Z,11.50
2023-05-25T02:12:39.649Z,11.40
2023-05-25T02:15:08.972Z,11.40
2023-05-25T02:17:37.268Z,11.40
2023-05-25T02:20:08.442Z,11.40
2023-05-25T02:22:37.878Z,11.40
2023-05-25T02:25:11.018Z,11.40
2023-05-25T02:27:39.215Z,11.40
2023-05-25T02:30:09.488Z,11.40
2023-05-25T02:32:37.884Z,11.30
2023-05-25T02:35:06.684Z,11.30
2023-05-25T02:37:35.350Z,11.30
2023-05-25T02:40:06.294Z,11.30
2023-05-25T02:42:35.832Z,11.30
2023-05-25T02:45:06.437Z,11.20
2023-05-25T02:47:36.309Z,11.20
2023-05-25T02:50:05.515Z,11.20
2023-05-25T02:52:38.074Z,11.20
2023-05-25T02:55:07.546Z,11.20
2023-05-25T02:57:40.123Z,11.20
2023-05-25T03:00:12.172Z,11.20
2023-05-25T03:02:40.502Z,11.20
2023-05-25T03:05:09.236Z,11.20
2023-05-25T03:07:38.318Z,11.20
2023-05-25T03:10:07.172Z,11.20
2023-05-25T03:12:35.383Z,11.10
2023-05-25T03:15:06.479Z,11.10
2023-05-25T03:17:35.325Z,11.10
2023-05-25T03:20:04.259Z,11.10
2023-05-25T03:22:33.780Z,11.10
2023-05-25T03:25:02.874Z,11.00
2023-05-25T03:27:31.711Z,11.00
2023-05-25T03:30:00.031Z,11.00
2023-05-25T03:32:29.629Z,10.90
2023-05-25T03:34:58.360Z,11.00
2023-05-25T03:37:27.536Z,10.90
2023-05-25T03:39:55.775Z,10.90
2023-05-25T03:42:24.406Z,10.90
2023-05-25T03:44:52.648Z,11.00
2023-05-25T03:47:20.841Z,11.00
2023-05-25T03:49:50.735Z,11.00
2023-05-25T03:52:18.870Z,11.00
2023-05-25T03:54:47.009Z,11.00
2023-05-25T03:57:15.347Z,10.90
2023-05-25T03:59:43.504Z,10.90
2023-05-25T04:02:11.729Z,10.90
2023-05-25T04:04:44.207Z,10.90
2023-05-25T04:07:13.787Z,10.90
2023-05-25T04:09:42.064Z,11.00
2023-05-25T04:12:10.954Z,11.00
2023-05-25T04:14:39.128Z,11.00
2023-05-25T04:17:07.320Z,11.00
2023-05-25T04:19:35.513Z,11.00
2023-05-25T04:22:04.407Z,11.00
2023-05-25T04:24:34.170Z,11.00
2023-05-25T04:27:03.180Z,11.00
2023-05-25T04:29:32.065Z,11.00
2023-05-25T04:32:10.486Z,11.00
2023-05-25T04:35:09.762Z,11.00
2023-05-25T04:37:44.395Z,11.00
2023-05-25T04:40:14.422Z,11.00
2023-05-25T04:42:45.065Z,11.00
2023-05-25T04:45:17.553Z,11.10
2023-05-25T04:47:47.386Z,11.10
2023-05-25T04:50:15.634Z,11.20
2023-05-25T04:52:43.767Z,11.10
2023-05-25T04:55:13.623Z,11.10
2023-05-25T04:57:44.136Z,11.10
2023-05-25T05:00:15.250Z,11.20
2023-05-25T05:02:44.280Z,11.20
2023-05-25T05:05:12.562Z,11.20
2023-05-25T05:07:41.241Z,11.20
2023-05-25T05:10:10.484Z,11.20
2023-05-25T05:12:42.547Z,11.20
2023-05-25T05:15:12.007Z,11.20
2023-05-25T05:17:42.375Z,11.20
2023-05-25T05:20:12.849Z,11.20
2023-05-25T05:22:41.070Z,11.30
2023-05-25T05:25:09.958Z,11.30
2023-05-25T05:27:38.187Z,11.30
2023-05-25T05:30:16.052Z,11.40
2023-05-25T05:32:46.610Z,11.40
2023-05-25T05:35:15.742Z,11.40
2023-05-25T05:37:48.592Z,11.40
2023-05-25T05:40:17.031Z,11.40
2023-05-25T05:42:45.438Z,11.50
2023-05-25T05:45:15.002Z,11.50
2023-05-25T05:47:44.027Z,11.50
2023-05-25T05:50:12.915Z,11.50
2023-05-25T05:52:43.554Z,11.50
2023-05-25T05:55:12.736Z,11.60
2023-05-25T05:57:42.434Z,11.60
2023-05-25T06:00:11.910Z,11.60
2023-05-25T06:02:47.522Z,11.70
2023-05-25T06:05:21.425Z,11.70
2023-05-25T06:07:50.027Z,11.80
2023-05-25T06:10:20.401Z,11.90
2023-05-25T06:12:48.552Z,11.90
2023-05-25T06:15:17.514Z,12.00
2023-05-25T06:17:49.093Z,12.00
2023-05-25T06:20:18.180Z,12.10
2023-05-25T06:22:47.419Z,12.10
2023-05-25T06:25:16.510Z,12.10
2023-05-25T06:27:45.452Z,12.20
2023-05-25T06:30:14.728Z,12.30
2023-05-25T06:32:43.765Z,12.30
2023-05-25T06:35:19.566Z,12.50
2023-05-25T06:37:50.624Z,12.50
2023-05-25T06:40:20.520Z,12.60
2023-05-25T06:42:48.813Z,12.70
2023-05-25T06:45:42.590Z,12.70
2023-05-25T06:48:11.505Z,12.80
2023-05-25T06:50:42.349Z,12.80
2023-05-25T06:53:11.254Z,12.80
2023-05-25T06:55:39.406Z,12.90
2023-05-25T06:58:07.501Z,12.80
2023-05-25T07:00:35.651Z,12.90
2023-05-25T07:03:03.750Z,12.90
2023-05-25T07:05:32.056Z,12.90
2023-05-25T07:08:01.713Z,12.90
2023-05-25T07:10:29.778Z,12.90
2023-05-25T07:12:57.883Z,12.90
2023-05-25T07:15:26.014Z,12.90
2023-05-25T07:17:57.198Z,13.00
2023-05-25T07:20:25.520Z,13.00
2023-05-25T07:22:54.420Z,13.00
2023-05-25T07:25:24.002Z,13.10
2023-05-25T07:27:55.058Z,13.10
2023-05-25T07:30:23.321Z,13.20
2023-05-25T07:32:51.561Z,13.20
2023-05-25T07:35:19.989Z,13.30
2023-05-25T07:37:50.069Z,13.30
2023-05-25T07:40:18.379Z,13.40
2023-05-25T07:42:47.789Z,13.50
2023-05-25T07:45:16.220Z,13.60
2023-05-25T07:47:44.505Z,13.60
2023-05-25T07:50:12.922Z,13.60
2023-05-25T07:52:41.209Z,13.60
2023-05-25T07:55:10.349Z,13.60
2023-05-25T07:57:38.684Z,13.60
2023-05-25T08:00:11.156Z,13.60
2023-05-25T08:02:42.395Z,13.60
2023-05-25T08:05:12.831Z,13.60
2023-05-25T08:07:42.943Z,13.60
2023-05-25T08:10:11.663Z,13.70
2023-05-25T08:12:48.980Z,13.80
2023-05-25T08:15:19.923Z,13.90
2023-05-25T08:17:50.833Z,14.00
2023-05-25T08:20:19.326Z,14.00
2023-05-25T08:22:47.489Z,14.00
2023-05-25T08:25:15.801Z,14.10
2023-05-25T08:27:43.937Z,14.10
2023-05-25T08:30:12.974Z,14.20
2023-05-25T08:32:42.553Z,14.20
2023-05-25T08:35:11.128Z,14.30
2023-05-25T08:37:40.070Z,14.30
2023-05-25T08:40:14.139Z,14.30
2023-05-25T08:42:43.534Z,14.40
2023-05-25T08:45:22.555Z,14.50
2023-05-25T08:48:05.025Z,14.60
2023-05-25T08:50:34.840Z,14.60
2023-05-25T08:53:05.865Z,14.70
2023-05-25T08:55:38.886Z,14.70
2023-05-25T08:58:11.327Z,14.70
2023-05-25T09:00:49.717Z,14.70
2023-05-25T09:03:19.665Z,14.70
2023-05-25T09:05:48.793Z,14.70
2023-05-25T09:08:18.033Z,14.70
2023-05-25T09:10:46.318Z,14.60
2023-05-25T09:13:21.771Z,14.70
2023-05-25T09:15:52.003Z,14.80
2023-05-25T09:18:23.914Z,14.90
2023-05-25T09:20:52.538Z,14.90
2023-05-25T09:23:21.359Z,15.00
2023-05-25T09:25:50.743Z,15.00
2023-05-25T09:28:26.840Z,15.00
2023-05-25T09:30:55.948Z,15.10
2023-05-25T09:33:25.652Z,15.10
2023-05-25T09:35:53.788Z,15.20
2023-05-25T09:38:22.485Z,15.20
2023-05-25T09:40:52.210Z,15.30
2023-05-25T09:43:32.212Z,15.30
2023-05-25T09:46:07.728Z,15.30
2023-05-25T09:48:38.053Z,15.40
2023-05-25T09:51:08.629Z,15.40
2023-05-25T09:53:36.776Z,15.40
2023-05-25T09:56:04.904Z,15.40
2023-05-25T09:58:32.997Z,15.50
2023-05-25T10:01:01.763Z,15.60
2023-05-25T10:03:29.914Z,15.60
2023-05-25T10:05:59.565Z,15.60
2023-05-25T10:08:29.716Z,15.70
2023-05-25T10:10:58.068Z,15.80
2023-05-25T10:13:28.210Z,15.90
2023-05-25T10:15:57.311Z,16.00
2023-05-25T10:18:27.779Z,16.10
2023-05-25T10:21:04.809Z,16.20
2023-05-25T10:23:41.421Z,16.30
2023-05-25T10:26:11.210Z,16.40
2023-05-25T10:28:42.915Z,16.50
2023-05-25T10:31:11.573Z,16.60
2023-05-25T10:33:40.259Z,16.60
2023-05-25T10:36:13.386Z,16.50
2023-05-25T10:38:44.673Z,16.50
2023-05-25T10:41:16.205Z,16.50
2023-05-25T10:43:44.672Z,16.40
2023-05-25T10:46:15.052Z,16.40
2023-05-25T10:48:48.348Z,16.50
2023-05-25T10:51:20.571Z,16.60
2023-05-25T10:53:59.448Z,16.60
2023-05-25T10:56:27.519Z,16.50
2023-05-25T10:58:56.807Z,16.50
2023-05-25T11:01:26.961Z,16.50
2023-05-25T11:03:57.883Z,16.50
2023-05-25T11:06:59.385Z,16.50
2023-05-25T11:09:31.457Z,16.50
2023-05-25T11:12:03.818Z,16.50
2023-05-25T11:14:33.659Z,16.60
2023-05-25T11:17:10.530Z,16.60
2023-05-25T11:19:44.262Z,16.60
2023-05-25T11:22:16.830Z,16.60
2023-05-25T11:24:46.446Z,16.60
2023-05-25T11:27:16.859Z,16.60
2023-05-25T11:29:45.169Z,16.70
2023-05-25T11:32:15.158Z,16.80
2023-05-25T11:34:46.748Z,16.80
2023-05-25T11:37:21.108Z,16.80
2023-05-25T11:39:51.576Z,16.90
2023-05-25T11:42:22.179Z,16.90
2023-05-25T11:44:50.611Z,16.90
2023-05-25T11:47:23.059Z,16.90
2023-05-25T11:49:51.489Z,16.90
2023-05-25T11:52:22.196Z,16.90
2023-05-25T11:54:53.113Z,16.90
2023-05-25T11:57:24.451Z,16.80
2023-05-25T11:59:54.109Z,16.80
2023-05-25T12:02:23.665Z,16.80
2023-05-25T12:04:56.257Z,16.80
2023-05-25T12:07:26.080Z,16.90
2023-05-25T12:10:06.154Z,16.90
2023-05-25T12:12:42.016Z,16.90
2023-05-25T12:15:11.868Z,16.90
2023-05-25T12:17:43.118Z,16.80
2023-05-25T12:20:13.189Z,16.90
2023-05-25T12:22:41.959Z,16.90
2023-05-25T12:25:13.761Z,17.00
2023-05-25T12:27:42.697Z,17.00
2023-05-25T12:30:12.390Z,17.10
2023-05-25T12:33:02.743Z,17.10
2023-05-25T12:35:45.418Z,17.10
2023-05-25T12:38:14.530Z,17.20
2023-05-25T12:40:44.741Z,17.20
2023-05-25T12:43:14.216Z,17.20
2023-05-25T12:45:43.202Z,17.20
2023-05-25T12:48:12.626Z,17.30
2023-05-25T12:50:57.359Z,17.30
2023-05-25T12:53:27.221Z,17.30
2023-05-25T12:56:03.845Z,17.40
2023-05-25T12:58:32.298Z,17.50
2023-05-25T13:01:00.974Z,17.50
2023-05-25T13:03:29.185Z,17.50
2023-05-25T13:06:03.266Z,17.50
2023-05-25T13:08:31.532Z,17.40
2023-05-25T13:11:00.198Z,17.40
2023-05-25T13:13:29.789Z,17.40
2023-05-25T13:15:58.294Z,17.50
2023-05-25T13:18:26.546Z,17.50
2023-05-25T13:20:56.911Z,17.50
2023-05-25T13:23:25.584Z,17.50
2023-05-25T13:25:53.642Z,17.50
2023-05-25T13:28:21.839Z,17.50
2023-05-25T13:30:51.288Z,17.50
2023-05-25T13:33:19.371Z,17.60
2023-05-25T13:35:58.511Z,17.60
2023-05-25T13:38:27.563Z,17.60
2023-05-25T13:40:55.682Z,17.60
2023-05-25T13:43:23.740Z,17.70
2023-05-25T13:45:55.644Z,17.70
2023-05-25T13:48:24.134Z,17.60
2023-05-25T13:50:52.291Z,17.60
2023-05-25T13:53:21.504Z,17.60
2023-05-25T13:55:49.662Z,17.60
2023-05-25T13:58:17.885Z,17.50
2023-05-25T14:00:46.190Z,17.50
2023-05-25T14:03:15.894Z,17.60
2023-05-25T14:05:44.343Z,17.60
2023-05-25T14:08:12.733Z,17.70
2023-05-25T14:10:43.272Z,17.70
2023-05-25T14:13:13.824Z,17.80
2023-05-25T14:15:42.009Z,17.80
2023-05-25T14:18:10.196Z,17.80
2023-05-25T14:20:41.138Z,17.80
2023-05-25T14:23:10.923Z,17.80
2023-05-25T14:25:41.368Z,17.70
2023-05-25T14:28:09.488Z,17.70
2023-05-25T14:30:37.581Z,17.70
2023-05-25T14:33:05.697Z,17.70
2023-05-25T14:35:33.956Z,17.70
2023-05-25T14:38:03.382Z,17.70
2023-05-25T14:40:31.456Z,17.70
2023-05-25T14:42:59.572Z,17.70
2023-05-25T14:45:27.655Z,17.80
2023-05-25T14:48:11.753Z,17.70
2023-05-25T14:50:44.469Z,17.70
2023-05-25T14:53:14.149Z,17.70
2023-05-25T14:55:42.353Z,17.70
2023-05-25T14:58:11.081Z,17.70
2023-05-25T15:00:39.178Z,17.80
2023-05-25T15:03:07.472Z,17.80
2023-05-25T15:05:35.613Z,17.80
2023-05-25T15:08:03.744Z,17.70
2023-05-25T15:10:33.308Z,17.70
2023-05-25T15:13:01.373Z,17.70
2023-05-25T15:15:29.470Z,17.60
2023-05-25T15:17:57.636Z,17.50
2023-05-25T15:20:25.862Z,17.40
2023-05-25T15:22:54.075Z,17.30
2023-05-25T15:25:35.097Z,17.20
2023-05-25T15:28:05.484Z,17.20
2023-05-25T15:30:34.320Z,17.10
2023-05-25T15:33:02.706Z,17.20
2023-05-25T15:35:32.456Z,17.20
2023-05-25T15:38:01.414Z,17.20
2023-05-25T15:40:29.753Z,17.20
2023-05-25T15:42:57.902Z,17.20
2023-05-25T15:45:27.504Z,17.20
2023-05-25T15:47:55.831Z,17.20
2023-05-25T15:50:24.165Z,17.20
2023-05-25T15:52:52.250Z,17.10
2023-05-25T15:55:20.596Z,17.10
2023-05-25T15:57:48.777Z,17.10
2023-05-25T16:00:17.869Z,17.00
2023-05-25T16:02:47.462Z,17.00
2023-05-25T16:05:15.561Z,17.00
2023-05-25T16:07:43.618Z,17.00
2023-05-25T16:10:11.927Z,16.90
2023-05-25T16:12:40.016Z,16.90
2023-05-25T16:15:09.058Z,16.80
2023-05-25T16:17:37.256Z,16.80
2023-05-25T16:20:08.567Z,16.70
2023-05-25T16:22:36.969Z,16.70
2023-05-25T16:25:05.502Z,16.70
2023-05-25T16:27:33.621Z,16.80
2023-05-25T16:30:01.821Z,16.80
2023-05-25T16:32:29.970Z,16.80
2023-05-25T16:34:58.383Z,16.80
2023-05-25T16:37:28.051Z,16.90
2023-05-25T16:39:56.231Z,16.90
2023-05-25T16:42:26.302Z,16.90
2023-05-25T16:44:54.532Z,16.90
2023-05-25T16:47:22.753Z,16.90
2023-05-25T16:49:50.883Z,17.00
2023-05-25T16:52:18.945Z,17.00
2023-05-25T16:54:48.394Z,17.00
2023-05-25T16:57:16.545Z,17.00
2023-05-25T16:59:45.585Z,17.00
2023-05-25T17:02:13.715Z,17.00
2023-05-25T17:04:41.830Z,17.00
2023-05-25T17:07:09.940Z,17.00
2023-05-25T17:09:38.081Z,17.00
2023-05-25T17:12:08.841Z,17.00
2023-05-25T17:14:37.131Z,16.90
2023-05-25T17:17:05.448Z,16.90
2023-05-25T17:19:34.640Z,16.90
2023-05-25T17:22:03.578Z,17.00
2023-05-25T17:24:31.806Z,17.00
2023-05-25T17:26:59.881Z,17.00
2023-05-25T17:29:29.495Z,17.00
2023-05-25T17:31:57.761Z,16.90
2023-05-25T17:34:25.909Z,16.90
2023-05-25T17:36:54.115Z,16.80
2023-05-25T17:39:22.251Z,16.80
2023-05-25T17:41:50.663Z,16.70
2023-05-25T17:44:18.886Z,16.60
2023-05-25T17:46:48.620Z,16.60
2023-05-25T17:49:16.787Z,16.50
2023-05-25T17:51:45.218Z,16.50
2023-05-25T17:54:15.377Z,16.40
2023-05-25T17:56:43.462Z,16.30
2023-05-25T17:59:11.567Z,16.30
2023-05-25T18:01:40.718Z,16.30
2023-05-25T18:04:10.608Z,16.20
2023-05-25T18:06:38.824Z,16.10
2023-05-25T18:09:06.960Z,16.10
2023-05-25T18:11:36.596Z,16.00
2023-05-25T18:14:05.096Z,15.90
2023-05-25T18:16:33.484Z,15.80
2023-05-25T18:19:03.844Z,15.80
2023-05-25T18:21:33.988Z,15.70
2023-05-25T18:24:02.068Z,15.70
2023-05-25T18:26:30.221Z,15.60
2023-05-25T18:28:58.352Z,15.50
2023-05-25T18:31:27.106Z,15.50
2023-05-25T18:33:55.443Z,15.40
2023-05-25T18:36:23.683Z,15.30
2023-05-25T18:38:53.189Z,15.30
2023-05-25T18:41:22.865Z,15.20
2023-05-25T18:43:51.100Z,15.10
2023-05-25T18:46:19.705Z,15.00
2023-05-25T18:48:48.054Z,15.00
2023-05-25T18:51:17.158Z,14.90
2023-05-25T18:53:45.888Z,14.80
2023-05-25T18:56:15.400Z,14.70
2023-05-25T18:58:43.492Z,14.60
2023-05-25T19:01:11.622Z,14.50
2023-05-25T19:03:39.771Z,14.50
2023-05-25T19:06:08.268Z,14.40
2023-05-25T19:08:36.435Z,14.30
2023-05-25T19:11:07.084Z,14.30
2023-05-25T19:13:36.549Z,14.20
2023-05-25T19:16:04.806Z,14.10
2023-05-25T19:18:32.887Z,14.00
2023-05-25T19:21:02.230Z,14.00
2023-05-25T19:23:30.656Z,13.90
2023-05-25T19:25:58.802Z,13.80
2023-05-25T19:28:26.953Z,13.70
2023-05-25T19:30:56.441Z,13.70
2023-05-25T19:33:24.505Z,13.60
2023-05-25T19:35:52.673Z,13.60
2023-05-25T19:40:49.369Z,13.60
2023-05-25T19:43:17.425Z,13.50
2023-05-25T19:45:46.050Z,13.40
2023-05-25T19:48:15.885Z,13.40
2023-05-25T19:50:43.973Z,13.30
2023-05-25T19:53:12.074Z,13.30
2023-05-25T19:55:40.141Z,13.20
2023-05-25T19:58:08.296Z,13.20
2023-05-25T20:00:36.420Z,13.10
2023-05-25T20:03:04.770Z,13.10
2023-05-25T20:05:34.365Z,13.10
2023-05-25T20:08:02.562Z,13.00
2023-05-25T20:10:30.943Z,13.00
2023-05-25T20:12:59.024Z,12.90
2023-05-25T20:15:27.345Z,12.90
2023-05-25T20:17:55.553Z,12.90
2023-05-25T20:20:23.964Z,12.80
2023-05-25T20:22:53.643Z,12.80
2023-05-25T20:25:21.797Z,12.80
2023-05-25T20:27:49.969Z,12.70
2023-05-25T20:30:18.162Z,12.70
2023-05-25T20:32:46.481Z,12.70
2023-05-25T20:35:14.987Z,12.60
2023-05-25T20:37:43.140Z,12.60
2023-05-25T20:40:13.053Z,12.60
2023-05-25T20:42:41.388Z,12.50
2023-05-25T20:45:10.839Z,12.50
2023-05-25T20:47:41.032Z,12.40
2023-05-25T20:50:09.882Z,12.40
2023-05-25T20:52:38.032Z,12.30
2023-05-25T20:55:06.919Z,12.30
2023-05-25T20:57:36.426Z,12.20
2023-05-25T21:00:05.317Z,12.20
2023-05-25T21:02:33.571Z,12.20
2023-05-25T21:05:02.240Z,12.10
2023-05-25T21:07:30.487Z,12.10
2023-05-25T21:09:59.610Z,12.10
2023-05-25T21:12:27.814Z,12.10
2023-05-25T21:14:57.237Z,12.10
2023-05-25T21:17:25.751Z,12.00
2023-05-25T21:19:53.960Z,12.00
2023-05-25T21:22:22.311Z,12.00
2023-05-25T21:24:51.035Z,11.90
2023-05-25T21:27:19.161Z,11.90
2023-05-25T21:29:47.373Z,11.90
2023-05-25T21:32:16.938Z,11.90
2023-05-25T21:34:45.050Z,11.80
2023-05-25T21:37:13.248Z,11.80
2023-05-25T21:39:41.434Z,11.70
2023-05-25T21:42:10.545Z,11.70
2023-05-25T21:44:38.813Z,11.70
2023-05-25T21:47:07.109Z,11.70
2023-05-25T21:49:36.760Z,11.70
2023-05-25T21:52:19.705Z,11.70
2023-05-25T21:54:47.991Z,11.60
2023-05-25T21:57:16.111Z,11.60
2023-05-25T21:59:44.273Z,11.60
2023-05-25T22:02:12.341Z,11.60
2023-05-25T22:04:41.845Z,11.60
2023-05-25T22:07:10.269Z,11.60
2023-05-25T22:09:38.395Z,11.50
2023-05-25T22:12:07.752Z,11.50
2023-05-25T22:14:35.891Z,11.50
2023-05-25T22:17:04.237Z,11.50
2023-05-25T22:19:32.584Z,11.40
2023-05-25T22:22:02.001Z,11.40
2023-05-25T22:24:30.093Z,11.40
2023-05-25T22:26:58.148Z,11.40
2023-05-25T22:29:26.381Z,11.40
2023-05-25T22:31:54.515Z,11.30
2023-05-25T22:34:22.836Z,11.30
2023-05-25T22:36:51.086Z,11.30
2023-05-25T22:39:20.489Z,11.30
2023-05-25T22:41:48.557Z,11.20
2023-05-25T22:44:16.748Z,11.20
2023-05-25T22:46:44.907Z,11.40
2023-05-25T22:49:13.032Z,11.30
2023-05-25T22:51:41.113Z,11.30
2023-05-25T22:54:09.206Z,11.20
2023-05-25T22:56:38.999Z,11.20
2023-05-25T22:59:07.066Z,11.10
2023-05-25T23:01:35.141Z,11.10
2023-05-25T23:04:03.376Z,11.00
2023-05-25T23:06:32.580Z,10.90
2023-05-25T23:09:00.764Z,10.90
2023-05-25T23:11:29.310Z,10.80
2023-05-25T23:14:00.682Z,10.80
2023-05-25T23:16:29.030Z,10.80
2023-05-25T23:18:57.347Z,10.80
2023-05-25T23:21:25.449Z,10.70
2023-05-25T23:23:53.650Z,10.70
2023-05-25T23:26:22.281Z,10.70
2023-05-25T23:28:50.451Z,10.60
2023-05-25T23:31:20.130Z,10.60
2023-05-25T23:33:48.288Z,10.60
2023-05-25T23:36:16.389Z,10.60
2023-05-25T23:38:44.547Z,10.60
2023-05-25T23:41:12.698Z,10.50
2023-05-25T23:43:40.886Z,10.50
2023-05-25T23:46:09.073Z,10.50
2023-05-25T23:48:38.528Z,10.50
2023-05-25T23:51:07.532Z,10.60
2023-05-25T23:53:35.602Z,10.40
2023-05-25T23:56:03.801Z,10.30
2023-05-25T23:58:31.875Z,10.30
